sensor_id;sensor_type;location;lat;lon;timestamp;temperature;humidity
36458;DHT22;22480;50.546;12.292;2023-01-15T00:01:04;7.30;99.90
36458;DHT22;22480;50.546;12.292;2023-01-15T00:03:30;7.30;99.90
36458;DHT22;22480;50.546;12.292;2023-01-15T00:06:01;7.30;99.90
36458;DHT22;22480;50.546;12.292;2023-01-15T00:08:27;7.30;99.90
36458;DHT22;22480;50.546;12.292;2023-01-15T00:10:53;7.30;99.90
36458;DHT22;22480;50.546;12.292;2023-01-15T00:13:20;7.40;99.90
36458;DHT22;22480;50.546;12.292;2023-01-15T00:15:46;7.40;99.90
36458;DHT22;22480;50.546;12.292;2023-01-15T00:18:12;7.50;99.90
36458;DHT22;22480;50.546;12.292;2023-01-15T00:20:37;7.50;99.90
36458;DHT22;22480;50.546;12.292;2023-01-15T00:23:03;7.60;99.90
36458;DHT22;22480;50.546;12.292;2023-01-15T00:25:29;7.60;99.90
36458;DHT22;22480;50.546;12.292;2023-01-15T00:28:13;7.60;99.90
36458;DHT22;22480;50.546;12.292;2023-01-15T00:30:40;7.70;99.90
36458;DHT22;22480;50.546;12.292;2023-01-15T00:33:07;7.70;99.90
36458;DHT22;22480;50.546;12.292;2023-01-15T00:35:33;7.70;99.90
36458;DHT22;22480;50.546;12.292;2023-01-15T00:37:58;7.80;99.90
36458;DHT22;22480;50.546;12.292;2023-01-15T00:40:24;7.80;99.90
36458;DHT22;22480;50.546;12.292;2023-01-15T00:42:50;7.80;99.90
36458;DHT22;22480;50.546;12.292;2023-01-15T00:45:16;7.80;99.90
36458;DHT22;22480;50.546;12.292;2023-01-15T00:47:43;7.80;99.90
36458;DHT22;22480;50.546;12.292;2023-01-15T00:50:12;7.90;99.90
36458;DHT22;22480;50.546;12.292;2023-01-15T00:52:38;7.90;99.90
36458;DHT22;22480;50.546;12.292;2023-01-15T00:55:05;7.90;99.90
36458;DHT22;22480;50.546;12.292;2023-01-15T00:57:31;8.00;99.90
36458;DHT22;22480;50.546;12.292;2023-01-15T00:59:58;8.00;99.90
36458;DHT22;22480;50.546;12.292;2023-01-15T01:02:24;8.00;99.90
36458;DHT22;22480;50.546;12.292;2023-01-15T01:04:50;8.00;99.90
36458;DHT22;22480;50.546;12.292;2023-01-15T01:07:16;7.90;99.90
36458;DHT22;22480;50.546;12.292;2023-01-15T01:09:42;7.90;99.90
36458;DHT22;22480;50.546;12.292;2023-01-15T01:12:08;7.80;99.90
36458;DHT22;22480;50.546;12.292;2023-01-15T01:14:35;7.80;99.90
36458;DHT22;22480;50.546;12.292;2023-01-15T01:17:01;7.70;99.90
36458;DHT22;22480;50.546;12.292;2023-01-15T01:19:27;7.60;99.90
36458;DHT22;22480;50.546;12.292;2023-01-15T01:21:53;7.60;99.90
36458;DHT22;22480;50.546;12.292;2023-01-15T01:24:21;7.50;99.90
36458;DHT22;22480;50.546;12.292;2023-01-15T01:26:48;7.50;99.90
36458;DHT22;22480;50.546;12.292;2023-01-15T01:29:16;7.50;99.90
36458;DHT22;22480;50.546;12.292;2023-01-15T01:31:42;7.40;99.90
36458;DHT22;22480;50.546;12.292;2023-01-15T01:34:08;7.40;99.90
36458;DHT22;22480;50.546;12.292;2023-01-15T01:36:36;7.30;99.90
36458;DHT22;22480;50.546;12.292;2023-01-15T01:39:03;7.20;99.90
36458;DHT22;22480;50.546;12.292;2023-01-15T01:41:31;7.20;99.90
36458;DHT22;22480;50.546;12.292;2023-01-15T01:46:33;7.20;99.90
36458;DHT22;22480;50.546;12.292;2023-01-15T01:49:11;7.20;99.90
36458;DHT22;22480;50.546;12.292;2023-01-15T01:51:41;7.20;99.90
36458;DHT22;22480;50.546;12.292;2023-01-15T01:54:09;7.20;99.90
36458;DHT22;22480;50.546;12.292;2023-01-15T01:56:35;7.20;99.90
36458;DHT22;22480;50.546;12.292;2023-01-15T01:59:02;7.30;99.90
36458;DHT22;22480;50.546;12.292;2023-01-15T02:01:29;7.30;99.90
36458;DHT22;22480;50.546;12.292;2023-01-15T02:03:55;7.30;99.90
36458;DHT22;22480;50.546;12.292;2023-01-15T02:06:24;7.30;99.90
36458;DHT22;22480;50.546;12.292;2023-01-15T02:08:51;7.30;99.90
36458;DHT22;22480;50.546;12.292;2023-01-15T02:11:19;7.30;99.90
36458;DHT22;22480;50.546;12.292;2023-01-15T02:13:54;7.30;99.90
36458;DHT22;22480;50.546;12.292;2023-01-15T02:16:41;7.30;99.90
36458;DHT22;22480;50.546;12.292;2023-01-15T02:19:44;7.30;99.90
36458;DHT22;22480;50.546;12.292;2023-01-15T02:25:30;7.40;99.90
36458;DHT22;22480;50.546;12.292;2023-01-15T02:28:26;7.40;99.90
36458;DHT22;22480;50.546;12.292;2023-01-15T02:31:03;7.40;99.90
36458;DHT22;22480;50.546;12.292;2023-01-15T02:33:37;7.50;99.90
36458;DHT22;22480;50.546;12.292;2023-01-15T02:36:08;7.40;99.90
36458;DHT22;22480;50.546;12.292;2023-01-15T02:38:40;7.50;99.90
36458;DHT22;22480;50.546;12.292;2023-01-15T02:41:10;7.60;99.90
36458;DHT22;22480;50.546;12.292;2023-01-15T02:43:48;7.60;99.90
36458;DHT22;22480;50.546;12.292;2023-01-15T02:46:17;7.60;99.90
36458;DHT22;22480;50.546;12.292;2023-01-15T02:48:50;7.70;99.90
36458;DHT22;22480;50.546;12.292;2023-01-15T02:51:20;7.80;99.90
36458;DHT22;22480;50.546;12.292;2023-01-15T02:53:50;7.90;99.90
36458;DHT22;22480;50.546;12.292;2023-01-15T02:56:21;7.90;99.90
36458;DHT22;22480;50.546;12.292;2023-01-15T02:58:53;8.00;99.90
36458;DHT22;22480;50.546;12.292;2023-01-15T03:01:25;8.00;99.90
36458;DHT22;22480;50.546;12.292;2023-01-15T03:04:19;8.00;99.90
36458;DHT22;22480;50.546;12.292;2023-01-15T03:09:22;8.00;99.90
36458;DHT22;22480;50.546;12.292;2023-01-15T03:12:01;8.00;99.90
36458;DHT22;22480;50.546;12.292;2023-01-15T03:14:56;7.90;99.90
36458;DHT22;22480;50.546;12.292;2023-01-15T03:17:55;7.90;99.90
36458;DHT22;22480;50.546;12.292;2023-01-15T03:20:26;7.80;99.90
36458;DHT22;22480;50.546;12.292;2023-01-15T03:22:57;7.80;99.90
36458;DHT22;22480;50.546;12.292;2023-01-15T03:25:35;7.70;99.90
36458;DHT22;22480;50.546;12.292;2023-01-15T03:28:04;7.70;99.90
36458;DHT22;22480;50.546;12.292;2023-01-15T03:30:33;7.70;99.90
36458;DHT22;22480;50.546;12.292;2023-01-15T03:32:59;7.80;99.90
36458;DHT22;22480;50.546;12.292;2023-01-15T03:35:48;7.80;99.90
36458;DHT22;22480;50.546;12.292;2023-01-15T03:38:35;7.80;99.90
36458;DHT22;22480;50.546;12.292;2023-01-15T03:41:30;7.90;99.90
36458;DHT22;22480;50.546;12.292;2023-01-15T03:44:10;7.90;99.90
36458;DHT22;22480;50.546;12.292;2023-01-15T03:47:01;7.90;99.90
36458;DHT22;22480;50.546;12.292;2023-01-15T03:58:18;8.00;99.90
36458;DHT22;22480;50.546;12.292;2023-01-15T04:00:50;8.00;99.90
36458;DHT22;22480;50.546;12.292;2023-01-15T04:03:19;8.00;99.90
36458;DHT22;22480;50.546;12.292;2023-01-15T04:05:48;8.00;99.90
36458;DHT22;22480;50.546;12.292;2023-01-15T04:08:16;7.90;99.90
36458;DHT22;22480;50.546;12.292;2023-01-15T04:10:52;8.00;99.90
36458;DHT22;22480;50.546;12.292;2023-01-15T04:13:19;8.00;99.90
36458;DHT22;22480;50.546;12.292;2023-01-15T04:15:44;7.90;99.90
36458;DHT22;22480;50.546;12.292;2023-01-15T04:18:11;7.90;99.90
36458;DHT22;22480;50.546;12.292;2023-01-15T04:20:37;7.90;99.90
36458;DHT22;22480;50.546;12.292;2023-01-15T04:23:03;8.00;99.90
36458;DHT22;22480;50.546;12.292;2023-01-15T04:25:29;8.00;99.90
36458;DHT22;22480;50.546;12.292;2023-01-15T04:27:55;7.90;99.90
36458;DHT22;22480;50.546;12.292;2023-01-15T04:30:21;8.00;99.90
36458;DHT22;22480;50.546;12.292;2023-01-15T04:32:48;8.10;99.90
36458;DHT22;22480;50.546;12.292;2023-01-15T04:35:14;8.00;99.90
36458;DHT22;22480;50.546;12.292;2023-01-15T04:37:40;8.00;99.90
36458;DHT22;22480;50.546;12.292;2023-01-15T04:40:07;8.00;99.90
36458;DHT22;22480;50.546;12.292;2023-01-15T04:42:32;8.10;99.90
36458;DHT22;22480;50.546;12.292;2023-01-15T04:45:17;8.00;99.90
36458;DHT22;22480;50.546;12.292;2023-01-15T04:47:42;8.00;99.90
36458;DHT22;22480;50.546;12.292;2023-01-15T04:50:09;8.00;99.90
36458;DHT22;22480;50.546;12.292;2023-01-15T04:52:36;8.00;99.90
36458;DHT22;22480;50.546;12.292;2023-01-15T04:55:02;8.00;99.90
36458;DHT22;22480;50.546;12.292;2023-01-15T04:57:28;8.10;99.90
36458;DHT22;22480;50.546;12.292;2023-01-15T04:59:54;8.10;99.90
36458;DHT22;22480;50.546;12.292;2023-01-15T05:02:20;8.10;99.90
36458;DHT22;22480;50.546;12.292;2023-01-15T05:04:45;8.10;99.90
36458;DHT22;22480;50.546;12.292;2023-01-15T05:07:11;8.00;99.90
36458;DHT22;22480;50.546;12.292;2023-01-15T05:09:37;8.10;99.90
36458;DHT22;22480;50.546;12.292;2023-01-15T05:12:03;8.10;99.90
36458;DHT22;22480;50.546;12.292;2023-01-15T05:14:29;8.10;99.90
36458;DHT22;22480;50.546;12.292;2023-01-15T05:16:55;8.10;99.90
36458;DHT22;22480;50.546;12.292;2023-01-15T05:19:20;8.10;99.90
36458;DHT22;22480;50.546;12.292;2023-01-15T05:21:46;8.10;99.90
36458;DHT22;22480;50.546;12.292;2023-01-15T05:24:15;8.10;99.90
36458;DHT22;22480;50.546;12.292;2023-01-15T05:26:42;8.10;99.90
36458;DHT22;22480;50.546;12.292;2023-01-15T05:29:09;8.10;99.90
36458;DHT22;22480;50.546;12.292;2023-01-15T05:31:35;8.10;99.90
36458;DHT22;22480;50.546;12.292;2023-01-15T05:34:01;8.10;99.90
36458;DHT22;22480;50.546;12.292;2023-01-15T05:36:28;8.10;99.90
36458;DHT22;22480;50.546;12.292;2023-01-15T05:38:56;8.10;99.90
36458;DHT22;22480;50.546;12.292;2023-01-15T05:41:26;8.00;99.90
36458;DHT22;22480;50.546;12.292;2023-01-15T05:44:12;8.10;99.90
36458;DHT22;22480;50.546;12.292;2023-01-15T05:46:39;8.10;99.90
36458;DHT22;22480;50.546;12.292;2023-01-15T05:49:07;8.10;99.90
36458;DHT22;22480;50.546;12.292;2023-01-15T05:51:34;8.10;99.90
36458;DHT22;22480;50.546;12.292;2023-01-15T05:54:00;8.10;99.90
36458;DHT22;22480;50.546;12.292;2023-01-15T05:56:26;8.20;99.90
36458;DHT22;22480;50.546;12.292;2023-01-15T05:58:52;8.30;99.90
36458;DHT22;22480;50.546;12.292;2023-01-15T06:01:19;8.30;99.90
36458;DHT22;22480;50.546;12.292;2023-01-15T06:03:44;8.40;99.90
36458;DHT22;22480;50.546;12.292;2023-01-15T06:06:16;8.40;99.90
36458;DHT22;22480;50.546;12.292;2023-01-15T06:08:43;8.40;99.90
36458;DHT22;22480;50.546;12.292;2023-01-15T06:11:09;8.40;99.90
36458;DHT22;22480;50.546;12.292;2023-01-15T06:13:36;7.90;99.90
36458;DHT22;22480;50.546;12.292;2023-01-15T06:16:04;7.20;99.90
36458;DHT22;22480;50.546;12.292;2023-01-15T06:18:30;6.90;99.90
36458;DHT22;22480;50.546;12.292;2023-01-15T06:21:05;6.50;99.90
36458;DHT22;22480;50.546;12.292;2023-01-15T06:23:31;6.30;99.90
36458;DHT22;22480;50.546;12.292;2023-01-15T06:26:02;6.10;99.90
36458;DHT22;22480;50.546;12.292;2023-01-15T06:28:28;6.00;99.90
36458;DHT22;22480;50.546;12.292;2023-01-15T06:30:54;5.90;99.90
36458;DHT22;22480;50.546;12.292;2023-01-15T06:33:20;5.80;99.90
36458;DHT22;22480;50.546;12.292;2023-01-15T06:35:45;5.90;99.90
36458;DHT22;22480;50.546;12.292;2023-01-15T06:38:11;5.80;99.90
36458;DHT22;22480;50.546;12.292;2023-01-15T06:40:37;5.80;99.90
36458;DHT22;22480;50.546;12.292;2023-01-15T06:43:03;5.80;99.90
36458;DHT22;22480;50.546;12.292;2023-01-15T06:45:47;5.80;99.90
36458;DHT22;22480;50.546;12.292;2023-01-15T06:48:52;5.70;99.90
36458;DHT22;22480;50.546;12.292;2023-01-15T06:51:18;5.70;99.90
36458;DHT22;22480;50.546;12.292;2023-01-15T06:53:46;5.80;99.90
36458;DHT22;22480;50.546;12.292;2023-01-15T06:56:13;5.70;99.90
36458;DHT22;22480;50.546;12.292;2023-01-15T06:58:40;5.70;99.90
36458;DHT22;22480;50.546;12.292;2023-01-15T07:01:11;5.70;99.90
36458;DHT22;22480;50.546;12.292;2023-01-15T07:03:36;5.70;99.90
36458;DHT22;22480;50.546;12.292;2023-01-15T07:06:07;5.70;99.90
36458;DHT22;22480;50.546;12.292;2023-01-15T07:08:33;5.70;99.90
36458;DHT22;22480;50.546;12.292;2023-01-15T07:11:06;5.70;99.90
36458;DHT22;22480;50.546;12.292;2023-01-15T07:13:33;5.60;99.90
36458;DHT22;22480;50.546;12.292;2023-01-15T07:16:00;5.60;99.90
36458;DHT22;22480;50.546;12.292;2023-01-15T07:18:27;5.60;99.90
36458;DHT22;22480;50.546;12.292;2023-01-15T07:20:55;5.50;99.90
36458;DHT22;22480;50.546;12.292;2023-01-15T07:23:22;5.50;99.90
36458;DHT22;22480;50.546;12.292;2023-01-15T07:25:50;5.50;99.90
36458;DHT22;22480;50.546;12.292;2023-01-15T07:28:16;5.50;99.90
36458;DHT22;22480;50.546;12.292;2023-01-15T07:30:42;5.50;99.90
36458;DHT22;22480;50.546;12.292;2023-01-15T07:33:07;5.50;99.90
36458;DHT22;22480;50.546;12.292;2023-01-15T07:35:34;5.40;99.90
36458;DHT22;22480;50.546;12.292;2023-01-15T07:38:01;5.50;99.90
36458;DHT22;22480;50.546;12.292;2023-01-15T07:40:27;5.40;99.90
36458;DHT22;22480;50.546;12.292;2023-01-15T07:42:53;5.50;99.90
36458;DHT22;22480;50.546;12.292;2023-01-15T07:45:38;5.40;99.90
36458;DHT22;22480;50.546;12.292;2023-01-15T07:48:24;5.40;99.90
36458;DHT22;22480;50.546;12.292;2023-01-15T07:51:08;5.40;99.90
36458;DHT22;22480;50.546;12.292;2023-01-15T07:53:34;5.20;99.90
36458;DHT22;22480;50.546;12.292;2023-01-15T07:56:00;5.20;99.90
36458;DHT22;22480;50.546;12.292;2023-01-15T07:58:25;5.10;99.90
36458;DHT22;22480;50.546;12.292;2023-01-15T08:00:51;5.10;99.90
36458;DHT22;22480;50.546;12.292;2023-01-15T08:03:17;5.10;99.90
36458;DHT22;22480;50.546;12.292;2023-01-15T08:05:43;5.10;99.90
36458;DHT22;22480;50.546;12.292;2023-01-15T08:08:16;5.10;99.90
36458;DHT22;22480;50.546;12.292;2023-01-15T08:10:42;5.10;99.90
36458;DHT22;22480;50.546;12.292;2023-01-15T08:13:28;5.10;99.90
36458;DHT22;22480;50.546;12.292;2023-01-15T08:16:13;5.10;99.90
36458;DHT22;22480;50.546;12.292;2023-01-15T08:18:38;5.10;99.90
36458;DHT22;22480;50.546;12.292;2023-01-15T08:21:04;5.10;99.90
36458;DHT22;22480;50.546;12.292;2023-01-15T08:23:30;5.00;99.90
36458;DHT22;22480;50.546;12.292;2023-01-15T08:25:59;5.10;99.90
36458;DHT22;22480;50.546;12.292;2023-01-15T08:28:26;5.00;99.90
36458;DHT22;22480;50.546;12.292;2023-01-15T08:30:52;5.10;99.90
36458;DHT22;22480;50.546;12.292;2023-01-15T08:33:17;5.00;99.90
36458;DHT22;22480;50.546;12.292;2023-01-15T08:35:43;4.80;99.90
36458;DHT22;22480;50.546;12.292;2023-01-15T08:38:09;4.80;99.90
36458;DHT22;22480;50.546;12.292;2023-01-15T08:40:35;4.70;99.90
36458;DHT22;22480;50.546;12.292;2023-01-15T08:43:21;4.70;99.90
36458;DHT22;22480;50.546;12.292;2023-01-15T08:45:47;4.60;99.90
36458;DHT22;22480;50.546;12.292;2023-01-15T08:48:12;4.60;99.90
36458;DHT22;22480;50.546;12.292;2023-01-15T08:50:38;4.60;99.90
36458;DHT22;22480;50.546;12.292;2023-01-15T08:53:04;4.60;99.90
36458;DHT22;22480;50.546;12.292;2023-01-15T08:55:30;4.50;99.90
36458;DHT22;22480;50.546;12.292;2023-01-15T08:57:57;4.40;99.90
36458;DHT22;22480;50.546;12.292;2023-01-15T09:00:23;4.40;99.90
36458;DHT22;22480;50.546;12.292;2023-01-15T09:02:49;4.30;99.90
36458;DHT22;22480;50.546;12.292;2023-01-15T09:05:16;4.40;99.90
36458;DHT22;22480;50.546;12.292;2023-01-15T09:07:41;4.30;99.90
36458;DHT22;22480;50.546;12.292;2023-01-15T09:10:07;4.20;99.90
36458;DHT22;22480;50.546;12.292;2023-01-15T09:12:33;4.30;99.90
36458;DHT22;22480;50.546;12.292;2023-01-15T09:14:59;4.20;99.90
36458;DHT22;22480;50.546;12.292;2023-01-15T09:17:26;4.20;99.90
36458;DHT22;22480;50.546;12.292;2023-01-15T09:19:52;4.30;99.90
36458;DHT22;22480;50.546;12.292;2023-01-15T09:22:18;4.30;99.90
36458;DHT22;22480;50.546;12.292;2023-01-15T09:24:43;4.20;99.90
36458;DHT22;22480;50.546;12.292;2023-01-15T09:27:11;4.30;99.90
36458;DHT22;22480;50.546;12.292;2023-01-15T09:29:37;4.30;99.90
36458;DHT22;22480;50.546;12.292;2023-01-15T09:32:02;4.30;99.90
36458;DHT22;22480;50.546;12.292;2023-01-15T09:34:28;4.30;99.90
36458;DHT22;22480;50.546;12.292;2023-01-15T09:36:54;4.30;99.90
36458;DHT22;22480;50.546;12.292;2023-01-15T09:39:20;4.30;99.90
36458;DHT22;22480;50.546;12.292;2023-01-15T09:47:38;4.20;99.90
36458;DHT22;22480;50.546;12.292;2023-01-15T09:55:53;4.10;99.90
36458;DHT22;22480;50.546;12.292;2023-01-15T09:58:26;4.10;99.90
36458;DHT22;22480;50.546;12.292;2023-01-15T10:00:56;4.10;99.90
36458;DHT22;22480;50.546;12.292;2023-01-15T10:06:15;4.00;99.90
36458;DHT22;22480;50.546;12.292;2023-01-15T10:08:46;4.00;99.90
36458;DHT22;22480;50.546;12.292;2023-01-15T10:13:46;4.00;99.90
36458;DHT22;22480;50.546;12.292;2023-01-15T10:16:20;4.00;99.90
36458;DHT22;22480;50.546;12.292;2023-01-15T10:18:47;4.10;99.90
36458;DHT22;22480;50.546;12.292;2023-01-15T10:26:55;4.20;99.90
36458;DHT22;22480;50.546;12.292;2023-01-15T10:32:45;4.10;99.90
36458;DHT22;22480;50.546;12.292;2023-01-15T10:35:40;4.10;99.90
36458;DHT22;22480;50.546;12.292;2023-01-15T10:43:52;4.00;99.90
36458;DHT22;22480;50.546;12.292;2023-01-15T10:46:25;4.00;99.90
36458;DHT22;22480;50.546;12.292;2023-01-15T10:48:58;3.90;99.90
36458;DHT22;22480;50.546;12.292;2023-01-15T10:51:31;3.90;99.90
36458;DHT22;22480;50.546;12.292;2023-01-15T10:54:07;3.90;99.90
36458;DHT22;22480;50.546;12.292;2023-01-15T10:56:58;3.90;99.90
36458;DHT22;22480;50.546;12.292;2023-01-15T10:59:47;3.90;99.90
36458;DHT22;22480;50.546;12.292;2023-01-15T11:04:50;4.00;99.90
36458;DHT22;22480;50.546;12.292;2023-01-15T11:07:16;4.00;99.90
36458;DHT22;22480;50.546;12.292;2023-01-15T11:09:42;3.90;99.90
36458;DHT22;22480;50.546;12.292;2023-01-15T11:12:22;4.00;99.90
36458;DHT22;22480;50.546;12.292;2023-01-15T11:14:50;4.00;99.90
36458;DHT22;22480;50.546;12.292;2023-01-15T11:17:44;4.10;99.90
36458;DHT22;22480;50.546;12.292;2023-01-15T11:20:29;4.20;99.90
36458;DHT22;22480;50.546;12.292;2023-01-15T11:22:57;4.20;99.90
36458;DHT22;22480;50.546;12.292;2023-01-15T11:25:31;4.20;99.90
36458;DHT22;22480;50.546;12.292;2023-01-15T11:27:59;4.20;99.90
36458;DHT22;22480;50.546;12.292;2023-01-15T11:30:34;4.20;99.90
36458;DHT22;22480;50.546;12.292;2023-01-15T11:33:04;4.20;99.90
36458;DHT22;22480;50.546;12.292;2023-01-15T11:35:31;4.20;99.90
36458;DHT22;22480;50.546;12.292;2023-01-15T11:38:05;4.30;99.90
36458;DHT22;22480;50.546;12.292;2023-01-15T11:40:31;4.40;99.90
36458;DHT22;22480;50.546;12.292;2023-01-15T11:42:57;4.60;99.90
36458;DHT22;22480;50.546;12.292;2023-01-15T11:45:49;4.90;99.90
36458;DHT22;22480;50.546;12.292;2023-01-15T11:48:42;5.30;99.90
36458;DHT22;22480;50.546;12.292;2023-01-15T11:51:28;5.40;99.90
36458;DHT22;22480;50.546;12.292;2023-01-15T11:54:00;5.50;99.90
36458;DHT22;22480;50.546;12.292;2023-01-15T11:56:29;5.30;99.90
36458;DHT22;22480;50.546;12.292;2023-01-15T11:58:58;5.30;99.90
36458;DHT22;22480;50.546;12.292;2023-01-15T12:03:57;5.10;99.90
36458;DHT22;22480;50.546;12.292;2023-01-15T12:06:24;5.00;99.90
36458;DHT22;22480;50.546;12.292;2023-01-15T12:09:13;5.00;99.90
36458;DHT22;22480;50.546;12.292;2023-01-15T12:25:35;4.80;99.90
36458;DHT22;22480;50.546;12.292;2023-01-15T12:28:16;4.70;99.90
36458;DHT22;22480;50.546;12.292;2023-01-15T12:31:03;4.60;99.90
36458;DHT22;22480;50.546;12.292;2023-01-15T12:39:00;4.30;99.90
36458;DHT22;22480;50.546;12.292;2023-01-15T12:41:42;4.30;99.90
36458;DHT22;22480;50.546;12.292;2023-01-15T12:44:51;4.20;99.90
36458;DHT22;22480;50.546;12.292;2023-01-15T12:56:11;4.30;99.90
36458;DHT22;22480;50.546;12.292;2023-01-15T13:04:04;4.20;99.90
36458;DHT22;22480;50.546;12.292;2023-01-15T13:06:33;4.20;99.90
36458;DHT22;22480;50.546;12.292;2023-01-15T13:09:10;4.20;99.90
36458;DHT22;22480;50.546;12.292;2023-01-15T13:11:39;4.30;99.90
36458;DHT22;22480;50.546;12.292;2023-01-15T13:14:14;4.20;99.90
36458;DHT22;22480;50.546;12.292;2023-01-15T13:16:57;4.10;99.90
36458;DHT22;22480;50.546;12.292;2023-01-15T13:19:36;4.00;99.90
36458;DHT22;22480;50.546;12.292;2023-01-15T13:22:11;4.10;99.90
36458;DHT22;22480;50.546;12.292;2023-01-15T13:24:53;4.00;99.90
36458;DHT22;22480;50.546;12.292;2023-01-15T13:30:26;4.00;99.90
36458;DHT22;22480;50.546;12.292;2023-01-15T13:33:05;4.00;99.90
36458;DHT22;22480;50.546;12.292;2023-01-15T13:35:45;3.90;99.90
36458;DHT22;22480;50.546;12.292;2023-01-15T13:38:19;3.90;99.90
36458;DHT22;22480;50.546;12.292;2023-01-15T13:40:48;3.80;99.90
36458;DHT22;22480;50.546;12.292;2023-01-15T13:43:41;3.80;99.90
36458;DHT22;22480;50.546;12.292;2023-01-15T13:46:12;3.80;99.90
36458;DHT22;22480;50.546;12.292;2023-01-15T13:48:49;3.80;99.90
36458;DHT22;22480;50.546;12.292;2023-01-15T13:51:34;3.70;99.90
36458;DHT22;22480;50.546;12.292;2023-01-15T13:54:17;3.80;99.90
36458;DHT22;22480;50.546;12.292;2023-01-15T13:56:43;3.90;99.90
36458;DHT22;22480;50.546;12.292;2023-01-15T14:02:35;3.70;99.90
36458;DHT22;22480;50.546;12.292;2023-01-15T14:05:24;3.60;99.90
36458;DHT22;22480;50.546;12.292;2023-01-15T14:07:51;3.50;99.90
36458;DHT22;22480;50.546;12.292;2023-01-15T14:15:29;3.40;99.90
36458;DHT22;22480;50.546;12.292;2023-01-15T14:18:26;3.30;99.90
36458;DHT22;22480;50.546;12.292;2023-01-15T14:23:42;3.20;99.90
36458;DHT22;22480;50.546;12.292;2023-01-15T14:34:42;3.30;99.90
36458;DHT22;22480;50.546;12.292;2023-01-15T14:39:40;3.20;99.90
36458;DHT22;22480;50.546;12.292;2023-01-15T14:45:18;3.00;99.90
36458;DHT22;22480;50.546;12.292;2023-01-15T14:47:47;3.00;99.90
36458;DHT22;22480;50.546;12.292;2023-01-15T14:52:50;3.00;99.90
36458;DHT22;22480;50.546;12.292;2023-01-15T14:55:18;3.00;99.90
36458;DHT22;22480;50.546;12.292;2023-01-15T14:57:59;3.00;99.90
36458;DHT22;22480;50.546;12.292;2023-01-15T15:00:31;3.10;99.90
36458;DHT22;22480;50.546;12.292;2023-01-15T15:03:00;3.10;99.90
36458;DHT22;22480;50.546;12.292;2023-01-15T15:05:28;3.20;99.90
36458;DHT22;22480;50.546;12.292;2023-01-15T15:07:56;3.30;99.90
36458;DHT22;22480;50.546;12.292;2023-01-15T15:10:25;3.40;99.90
36458;DHT22;22480;50.546;12.292;2023-01-15T15:15:49;3.40;99.90
36458;DHT22;22480;50.546;12.292;2023-01-15T15:18:55;3.40;99.90
36458;DHT22;22480;50.546;12.292;2023-01-15T15:21:30;3.30;99.90
36458;DHT22;22480;50.546;12.292;2023-01-15T15:24:23;3.20;99.90
36458;DHT22;22480;50.546;12.292;2023-01-15T15:26:50;3.10;99.90
36458;DHT22;22480;50.546;12.292;2023-01-15T15:29:18;3.00;99.90
36458;DHT22;22480;50.546;12.292;2023-01-15T15:34:36;2.80;99.90
36458;DHT22;22480;50.546;12.292;2023-01-15T15:37:14;2.80;99.90
36458;DHT22;22480;50.546;12.292;2023-01-15T15:39:43;2.90;99.90
36458;DHT22;22480;50.546;12.292;2023-01-15T15:42:27;2.90;99.90
36458;DHT22;22480;50.546;12.292;2023-01-15T15:45:24;2.90;99.90
36458;DHT22;22480;50.546;12.292;2023-01-15T15:48:19;2.90;99.90
36458;DHT22;22480;50.546;12.292;2023-01-15T15:51:05;2.90;99.90
36458;DHT22;22480;50.546;12.292;2023-01-15T15:53:45;2.90;99.90
36458;DHT22;22480;50.546;12.292;2023-01-15T15:56:11;2.80;99.90
36458;DHT22;22480;50.546;12.292;2023-01-15T15:58:37;2.80;99.90
36458;DHT22;22480;50.546;12.292;2023-01-15T16:01:04;2.80;99.90
36458;DHT22;22480;50.546;12.292;2023-01-15T16:03:34;2.90;99.90
36458;DHT22;22480;50.546;12.292;2023-01-15T16:06:03;2.80;99.90
36458;DHT22;22480;50.546;12.292;2023-01-15T16:08:31;2.80;99.90
36458;DHT22;22480;50.546;12.292;2023-01-15T16:10:59;2.80;99.90
36458;DHT22;22480;50.546;12.292;2023-01-15T16:13:45;2.80;99.90
36458;DHT22;22480;50.546;12.292;2023-01-15T16:16:12;2.90;99.90
36458;DHT22;22480;50.546;12.292;2023-01-15T16:18:40;2.90;99.90
36458;DHT22;22480;50.546;12.292;2023-01-15T16:21:10;2.90;99.90
36458;DHT22;22480;50.546;12.292;2023-01-15T16:23:40;2.90;99.90
36458;DHT22;22480;50.546;12.292;2023-01-15T16:26:16;2.80;99.90
36458;DHT22;22480;50.546;12.292;2023-01-15T16:28:54;2.80;99.90
36458;DHT22;22480;50.546;12.292;2023-01-15T16:31:21;2.90;99.90
36458;DHT22;22480;50.546;12.292;2023-01-15T16:33:53;3.00;99.90
36458;DHT22;22480;50.546;12.292;2023-01-15T16:36:20;3.00;99.90
36458;DHT22;22480;50.546;12.292;2023-01-15T16:38:48;3.00;99.90
36458;DHT22;22480;50.546;12.292;2023-01-15T16:41:25;3.00;99.90
36458;DHT22;22480;50.546;12.292;2023-01-15T16:43:59;3.00;99.90
36458;DHT22;22480;50.546;12.292;2023-01-15T16:46:27;3.10;99.90
36458;DHT22;22480;50.546;12.292;2023-01-15T16:51:46;3.10;99.90
36458;DHT22;22480;50.546;12.292;2023-01-15T16:57:03;3.10;99.90
36458;DHT22;22480;50.546;12.292;2023-01-15T17:02:16;3.10;99.90
36458;DHT22;22480;50.546;12.292;2023-01-15T17:04:45;3.00;99.90
36458;DHT22;22480;50.546;12.292;2023-01-15T17:07:34;3.10;99.90
36458;DHT22;22480;50.546;12.292;2023-01-15T17:10:02;3.00;99.90
36458;DHT22;22480;50.546;12.292;2023-01-15T17:12:35;2.90;99.90
36458;DHT22;22480;50.546;12.292;2023-01-15T17:17:50;2.70;99.90
36458;DHT22;22480;50.546;12.292;2023-01-15T17:20:16;2.70;99.90
36458;DHT22;22480;50.546;12.292;2023-01-15T17:22:45;2.70;99.90
36458;DHT22;22480;50.546;12.292;2023-01-15T17:25:23;2.80;99.90
36458;DHT22;22480;50.546;12.292;2023-01-15T17:27:51;2.80;99.90
36458;DHT22;22480;50.546;12.292;2023-01-15T17:30:18;2.80;99.90
36458;DHT22;22480;50.546;12.292;2023-01-15T17:32:43;2.80;99.90
36458;DHT22;22480;50.546;12.292;2023-01-15T17:35:24;2.80;99.90
36458;DHT22;22480;50.546;12.292;2023-01-15T17:37:50;2.90;99.90
36458;DHT22;22480;50.546;12.292;2023-01-15T17:40:16;3.00;99.90
36458;DHT22;22480;50.546;12.292;2023-01-15T17:42:42;2.90;99.90
36458;DHT22;22480;50.546;12.292;2023-01-15T17:45:21;3.00;99.90
36458;DHT22;22480;50.546;12.292;2023-01-15T17:47:47;3.00;99.90
36458;DHT22;22480;50.546;12.292;2023-01-15T17:50:14;3.00;99.90
36458;DHT22;22480;50.546;12.292;2023-01-15T17:52:40;3.00;99.90
36458;DHT22;22480;50.546;12.292;2023-01-15T17:55:19;3.00;99.90
36458;DHT22;22480;50.546;12.292;2023-01-15T17:58:04;3.00;99.90
36458;DHT22;22480;50.546;12.292;2023-01-15T18:00:49;3.00;99.90
36458;DHT22;22480;50.546;12.292;2023-01-15T18:03:35;3.00;99.90
36458;DHT22;22480;50.546;12.292;2023-01-15T18:06:21;3.00;99.90
36458;DHT22;22480;50.546;12.292;2023-01-15T18:08:51;3.00;99.90
36458;DHT22;22480;50.546;12.292;2023-01-15T18:11:18;3.00;99.90